createdAt,value
2022-11-29T00:01:37.752Z,5.70
2022-11-29T00:04:05.660Z,5.70
2022-11-29T00:06:34.386Z,5.70
2022-11-29T00:09:11.667Z,5.60
2022-11-29T00:12:00.190Z,5.60
2022-11-29T00:14:28.799Z,5.60
2022-11-29T00:17:02.047Z,5.50
2022-11-29T00:19:31.604Z,5.50
2022-11-29T00:22:00.479Z,5.50
2022-11-29T00:24:28.590Z,5.50
2022-11-29T00:26:56.132Z,5.50
2022-11-29T00:29:23.644Z,5.50
2022-11-29T00:31:51.244Z,5.50
2022-11-29T00:34:18.894Z,5.50
2022-11-29T00:36:46.422Z,5.50
2022-11-29T00:39:14.069Z,5.50
2022-11-29T00:41:42.081Z,5.50
2022-11-29T00:44:13.908Z,5.50
2022-11-29T00:46:44.443Z,5.50
2022-11-29T00:49:12.131Z,5.50
2022-11-29T00:51:39.694Z,5.50
2022-11-29T00:54:07.278Z,5.50
2022-11-29T00:56:34.790Z,5.50
2022-11-29T00:59:02.402Z,5.50
2022-11-29T01:01:30.121Z,5.60
2022-11-29T01:03:57.690Z,5.50
2022-11-29T01:06:25.229Z,5.50
2022-11-29T01:08:53.933Z,5.50
2022-11-29T01:11:26.037Z,5.50
2022-11-29T01:14:03.514Z,5.50
2022-11-29T01:16:32.118Z,5.50
2022-11-29T01:19:00.510Z,5.40
2022-11-29T01:21:28.354Z,5.40
2022-11-29T01:23:56.054Z,5.40
2022-11-29T01:26:28.817Z,5.40
2022-11-29T01:28:58.588Z,5.40
2022-11-29T01:31:33.039Z,5.40
2022-11-29T01:34:02.567Z,5.40
2022-11-29T01:36:30.479Z,5.40
2022-11-29T01:39:01.811Z,5.40
2022-11-29T01:41:32.254Z,5.40
2022-11-29T01:44:05.099Z,5.40
2022-11-29T01:46:44.824Z,5.50
2022-11-29T01:49:15.268Z,5.50
2022-11-29T01:51:52.867Z,5.50
2022-11-29T01:54:21.986Z,5.50
2022-11-29T01:56:51.857Z,5.50
2022-11-29T01:59:23.386Z,5.50
2022-11-29T02:01:52.117Z,5.60
2022-11-29T02:04:21.057Z,5.60
2022-11-29T02:06:48.792Z,5.50
2022-11-29T02:09:21.856Z,5.50
2022-11-29T02:12:14.444Z,5.50
2022-11-29T02:15:13.521Z,5.50
2022-11-29T02:18:19.014Z,5.50
2022-11-29T02:20:49.593Z,5.50
2022-11-29T02:23:54.099Z,5.40
2022-11-29T02:26:49.395Z,5.40
2022-11-29T02:29:29.166Z,5.40
2022-11-29T02:32:24.830Z,5.40
2022-11-29T02:35:01.248Z,5.40
2022-11-29T02:37:54.861Z,5.40
2022-11-29T02:40:49.472Z,5.40
2022-11-29T02:43:32.761Z,5.40
2022-11-29T02:46:18.999Z,5.40
2022-11-29T02:48:58.297Z,5.40
2022-11-29T02:51:30.909Z,5.40
2022-11-29T02:54:01.318Z,5.40
2022-11-29T02:57:07.054Z,5.40
2022-11-29T02:59:59.149Z,5.30
2022-11-29T03:02:41.314Z,5.40
2022-11-29T03:05:29.789Z,5.40
2022-11-29T03:08:25.152Z,5.30
2022-11-29T03:11:17.313Z,5.30
2022-11-29T03:14:18.893Z,5.30
2022-11-29T03:17:12.856Z,5.30
2022-11-29T03:19:46.465Z,5.30
2022-11-29T03:22:43.685Z,5.30
2022-11-29T03:25:26.557Z,5.30
2022-11-29T03:28:07.134Z,5.40
2022-11-29T03:30:38.153Z,5.30
2022-11-29T03:33:45.812Z,5.30
2022-11-29T03:36:19.450Z,5.30
2022-11-29T03:38:47.675Z,5.30
2022-11-29T03:41:18.061Z,5.30
2022-11-29T03:43:54.661Z,5.30
2022-11-29T03:46:30.902Z,5.30
2022-11-29T03:49:08.994Z,5.30
2022-11-29T03:51:48.942Z,5.40
2022-11-29T03:54:24.489Z,5.30
2022-11-29T03:56:52.346Z,5.40
2022-11-29T04:00:02.517Z,5.40
2022-11-29T04:03:10.640Z,5.40
2022-11-29T04:05:48.771Z,5.40
2022-11-29T04:08:16.390Z,5.50
2022-11-29T04:11:22.953Z,5.50
2022-11-29T04:14:31.119Z,5.40
2022-11-29T04:17:28.001Z,5.50
2022-11-29T04:20:19.633Z,5.50
2022-11-29T04:23:22.846Z,5.40
2022-11-29T04:26:08.733Z,5.50
2022-11-29T04:29:00.099Z,5.40
2022-11-29T04:31:48.505Z,5.40
2022-11-29T04:34:34.670Z,5.50
2022-11-29T04:37:16.090Z,5.40
2022-11-29T04:39:57.019Z,5.40
2022-11-29T04:43:21.366Z,5.40
2022-11-29T04:45:54.651Z,5.40
2022-11-29T04:48:51.268Z,5.50
2022-11-29T04:51:28.732Z,5.50
2022-11-29T04:54:28.452Z,5.50
2022-11-29T04:57:40.095Z,5.50
2022-11-29T05:00:12.115Z,5.50
2022-11-29T05:02:54.777Z,5.50
2022-11-29T05:05:37.381Z,5.50
2022-11-29T05:08:29.404Z,5.50
2022-11-29T05:11:16.522Z,5.50
2022-11-29T05:13:49.972Z,5.50
2022-11-29T05:16:40.413Z,5.50
2022-11-29T05:19:10.806Z,5.60
2022-11-29T05:21:41.269Z,5.60
2022-11-29T05:24:29.889Z,5.60
2022-11-29T05:27:10.165Z,5.60
2022-11-29T05:29:57.449Z,5.60
2022-11-29T05:32:44.499Z,5.60
2022-11-29T05:35:44.948Z,5.60
2022-11-29T05:38:30.848Z,5.60
2022-11-29T05:41:39.390Z,5.50
2022-11-29T05:44:19.898Z,5.60
2022-11-29T05:46:58.861Z,5.50
2022-11-29T05:49:38.319Z,5.50
2022-11-29T05:52:21.113Z,5.50
2022-11-29T05:54:57.872Z,5.50
2022-11-29T05:57:41.673Z,5.60
2022-11-29T06:00:14.720Z,5.60
2022-11-29T06:03:00.277Z,5.60
2022-11-29T06:05:50.201Z,5.60
2022-11-29T06:08:39.341Z,5.60
2022-11-29T06:11:17.195Z,5.60
2022-11-29T06:14:07.704Z,5.50
2022-11-29T06:17:05.909Z,5.50
2022-11-29T06:19:49.294Z,5.50
2022-11-29T06:22:45.043Z,5.50
2022-11-29T06:25:18.315Z,5.50
2022-11-29T06:28:07.989Z,5.50
2022-11-29T06:31:02.882Z,6.50
2022-11-29T06:33:53.957Z,5.50
2022-11-29T06:36:31.153Z,5.60
2022-11-29T06:38:58.969Z,5.60
2022-11-29T06:41:26.833Z,5.60
2022-11-29T06:43:54.760Z,5.70
2022-11-29T06:46:47.411Z,5.70
2022-11-29T06:49:22.137Z,5.70
2022-11-29T06:52:14.456Z,5.70
2022-11-29T06:54:47.779Z,5.70
2022-11-29T06:57:18.814Z,5.70
2022-11-29T07:00:02.358Z,5.70
2022-11-29T07:02:47.334Z,5.70
2022-11-29T07:05:29.086Z,5.80
2022-11-29T07:07:57.918Z,5.80
2022-11-29T07:10:26.832Z,5.80
2022-11-29T07:12:54.654Z,5.70
2022-11-29T07:15:23.298Z,5.70
2022-11-29T07:18:03.353Z,5.70
2022-11-29T07:20:36.654Z,5.70
2022-11-29T07:23:16.225Z,5.70
2022-11-29T07:26:04.905Z,5.70
2022-11-29T07:28:59.845Z,5.70
2022-11-29T07:31:51.637Z,5.70
2022-11-29T07:34:24.244Z,5.70
2022-11-29T07:37:10.790Z,5.70
2022-11-29T07:39:49.538Z,5.80
2022-11-29T07:42:35.007Z,5.80
2022-11-29T07:45:21.646Z,5.80
2022-11-29T07:47:50.213Z,5.80
2022-11-29T07:50:18.585Z,5.90
2022-11-29T07:52:47.229Z,5.80
2022-11-29T07:55:19.181Z,5.90
2022-11-29T07:57:48.146Z,5.90
2022-11-29T08:00:16.766Z,5.90
2022-11-29T08:02:44.613Z,5.90
2022-11-29T08:05:12.533Z,5.90
2022-11-29T08:07:41.347Z,5.90
2022-11-29T08:10:12.274Z,5.90
2022-11-29T08:12:50.630Z,5.90
2022-11-29T08:15:20.490Z,5.90
2022-11-29T08:17:48.362Z,5.90
2022-11-29T08:20:16.807Z,5.90
2022-11-29T08:22:44.341Z,5.90
2022-11-29T08:25:12.405Z,5.90
2022-11-29T08:27:40.168Z,5.80
2022-11-29T08:30:08.486Z,5.70
2022-11-29T08:32:36.105Z,5.70
2022-11-29T08:35:04.028Z,5.70
2022-11-29T08:37:31.609Z,5.70
2022-11-29T08:39:59.147Z,5.70
2022-11-29T08:42:26.726Z,5.70
2022-11-29T08:44:54.250Z,5.70
2022-11-29T08:47:37.038Z,5.80
2022-11-29T08:50:14.564Z,5.70
2022-11-29T08:53:03.443Z,5.80
2022-11-29T08:55:35.386Z,5.80
2022-11-29T08:58:12.964Z,5.80
2022-11-29T09:00:42.555Z,5.80
2022-11-29T09:03:28.874Z,5.80
2022-11-29T09:05:57.564Z,5.90
2022-11-29T09:08:25.105Z,5.90
2022-11-29T09:10:53.338Z,5.90
2022-11-29T09:13:20.946Z,6.00
2022-11-29T09:15:48.495Z,6.00
2022-11-29T09:18:16.117Z,6.00
2022-11-29T09:20:44.722Z,6.10
2022-11-29T09:23:13.252Z,6.10
2022-11-29T09:25:40.866Z,6.20
2022-11-29T09:28:08.628Z,6.20
2022-11-29T09:30:38.068Z,6.20
2022-11-29T09:33:05.773Z,6.30
2022-11-29T09:35:33.720Z,6.20
2022-11-29T09:38:01.238Z,6.30
2022-11-29T09:40:53.064Z,6.30
2022-11-29T09:43:48.790Z,6.40
2022-11-29T09:46:30.946Z,6.40
2022-11-29T09:49:13.766Z,6.50
2022-11-29T09:52:07.362Z,6.60
2022-11-29T09:55:03.993Z,6.60
2022-11-29T09:57:32.545Z,6.70
2022-11-29T10:00:07.002Z,6.70
2022-11-29T10:02:47.598Z,6.80
2022-11-29T10:05:20.711Z,6.80
2022-11-29T10:07:54.299Z,6.80
2022-11-29T10:10:31.223Z,6.80
2022-11-29T10:13:38.196Z,6.90
2022-11-29T10:16:34.896Z,6.90
2022-11-29T10:19:10.790Z,6.90
2022-11-29T10:21:42.145Z,6.90
2022-11-29T10:24:18.378Z,6.90
2022-11-29T10:26:46.260Z,7.00
2022-11-29T10:29:15.793Z,7.00
2022-11-29T10:31:49.481Z,7.10
2022-11-29T10:34:20.940Z,7.10
2022-11-29T10:36:52.778Z,7.10
2022-11-29T10:39:52.311Z,7.10
2022-11-29T10:42:40.963Z,7.10
2022-11-29T10:45:27.244Z,7.20
2022-11-29T10:48:01.796Z,7.20
2022-11-29T10:50:31.964Z,7.20
2022-11-29T10:53:09.532Z,7.20
2022-11-29T10:55:49.966Z,7.20
2022-11-29T10:58:24.709Z,7.30
2022-11-29T11:01:02.695Z,7.30
2022-11-29T11:03:55.793Z,7.40
2022-11-29T11:06:26.794Z,7.40
2022-11-29T11:09:11.232Z,7.40
2022-11-29T11:11:39.673Z,7.40
2022-11-29T11:14:21.716Z,7.50
2022-11-29T11:16:49.763Z,7.60
2022-11-29T11:19:53.643Z,7.60
2022-11-29T11:22:23.188Z,7.60
2022-11-29T11:25:15.238Z,8.00
2022-11-29T11:27:42.875Z,7.70
2022-11-29T11:30:25.400Z,7.80
2022-11-29T11:33:20.185Z,7.80
2022-11-29T11:36:08.108Z,7.90
2022-11-29T11:38:51.776Z,7.90
2022-11-29T11:41:50.881Z,7.90
2022-11-29T11:44:52.351Z,7.90
2022-11-29T11:47:24.392Z,8.00
2022-11-29T11:50:07.674Z,8.00
2022-11-29T11:52:53.334Z,8.00
2022-11-29T11:55:35.757Z,8.00
2022-11-29T11:58:16.207Z,7.90
2022-11-29T12:01:03.438Z,8.00
2022-11-29T12:03:51.280Z,7.90
2022-11-29T12:06:46.337Z,7.80
2022-11-29T12:09:23.506Z,7.80
2022-11-29T12:12:00.117Z,7.80
2022-11-29T12:14:38.171Z,7.80
2022-11-29T12:17:30.080Z,7.80
2022-11-29T12:20:00.661Z,7.80
2022-11-29T12:22:34.201Z,7.80
2022-11-29T12:25:06.573Z,7.80
2022-11-29T12:27:34.182Z,7.80
2022-11-29T12:30:01.892Z,7.80
2022-11-29T12:32:45.261Z,7.80
2022-11-29T12:35:43.526Z,7.90
2022-11-29T12:38:32.106Z,7.80
2022-11-29T12:41:14.325Z,7.90
2022-11-29T12:44:00.032Z,7.80
2022-11-29T12:46:29.386Z,7.70
2022-11-29T12:49:11.913Z,7.70
2022-11-29T12:52:15.001Z,7.70
2022-11-29T12:54:56.561Z,7.70
2022-11-29T12:57:47.922Z,7.60
2022-11-29T13:00:19.045Z,7.60
2022-11-29T13:03:01.676Z,7.50
2022-11-29T13:05:38.721Z,7.50
2022-11-29T13:09:07.566Z,7.60
2022-11-29T13:12:06.420Z,7.50
2022-11-29T13:15:03.054Z,7.50
2022-11-29T13:17:55.016Z,7.40
2022-11-29T13:20:44.399Z,7.40
2022-11-29T13:23:52.910Z,7.30
2022-11-29T13:26:17.089Z,7.30
2022-11-29T13:28:46.560Z,7.30
2022-11-29T13:31:25.077Z,7.30
2022-11-29T13:33:58.846Z,7.20
2022-11-29T13:36:38.066Z,7.10
2022-11-29T13:39:26.762Z,7.10
2022-11-29T13:41:57.017Z,7.20
2022-11-29T13:44:39.641Z,7.10
2022-11-29T13:47:12.616Z,7.20
2022-11-29T13:49:54.875Z,7.20
2022-11-29T13:52:34.910Z,7.10
2022-11-29T13:55:14.097Z,7.00
2022-11-29T13:58:16.379Z,7.00
2022-11-29T14:00:45.170Z,7.00
2022-11-29T14:03:25.988Z,7.00
2022-11-29T14:06:03.137Z,7.00
2022-11-29T14:09:16.680Z,7.00
2022-11-29T14:11:34.127Z,6.90
2022-11-29T14:14:23.452Z,6.90
2022-11-29T14:16:54.681Z,6.80
2022-11-29T14:19:33.111Z,6.70
2022-11-29T14:22:07.405Z,6.50
2022-11-29T14:24:40.870Z,6.50
2022-11-29T14:27:14.533Z,6.40
2022-11-29T14:29:54.896Z,6.40
2022-11-29T14:32:45.927Z,6.20
2022-11-29T14:35:31.124Z,6.20
2022-11-29T14:38:23.130Z,6.10
2022-11-29T14:41:02.868Z,6.10
2022-11-29T14:43:35.609Z,6.00
2022-11-29T14:46:15.463Z,6.00
2022-11-29T14:48:56.255Z,5.90
2022-11-29T14:51:26.719Z,5.80
2022-11-29T14:54:14.907Z,5.80
2022-11-29T14:56:45.059Z,5.80
2022-11-29T14:59:43.716Z,5.70
2022-11-29T15:02:39.821Z,5.60
2022-11-29T15:05:13.374Z,5.60
2022-11-29T15:08:01.727Z,5.60
2022-11-29T15:10:33.507Z,5.60
2022-11-29T15:13:01.175Z,5.60
2022-11-29T15:15:44.605Z,5.60
2022-11-29T15:18:33.497Z,5.60
2022-11-29T15:21:25.872Z,5.60
2022-11-29T15:24:03.668Z,5.60
2022-11-29T15:26:32.639Z,5.60
2022-11-29T15:29:18.775Z,5.60
2022-11-29T15:31:53.252Z,5.70
2022-11-29T15:34:26.329Z,5.70
2022-11-29T15:36:53.905Z,5.60
2022-11-29T15:39:37.746Z,5.70
2022-11-29T15:42:18.105Z,5.60
2022-11-29T15:44:46.780Z,5.60
2022-11-29T15:47:23.320Z,5.60
2022-11-29T15:49:52.579Z,5.60
2022-11-29T15:52:35.857Z,5.60
2022-11-29T15:55:06.525Z,5.60
2022-11-29T15:57:41.730Z,5.60
2022-11-29T16:00:17.454Z,5.60
2022-11-29T16:02:59.595Z,5.60
2022-11-29T16:05:36.593Z,5.60
2022-11-29T16:08:14.379Z,5.60
2022-11-29T16:10:47.492Z,5.60
2022-11-29T16:13:24.171Z,5.60
2022-11-29T16:16:13.973Z,5.60
2022-11-29T16:18:45.115Z,5.60
2022-11-29T16:21:29.114Z,5.60
2022-11-29T16:23:57.973Z,5.60
2022-11-29T16:26:28.229Z,5.60
2022-11-29T16:28:57.997Z,5.60
2022-11-29T16:31:47.882Z,5.50
2022-11-29T16:34:29.956Z,5.60
2022-11-29T16:37:08.978Z,5.60
2022-11-29T16:39:38.852Z,5.50
2022-11-29T16:42:08.394Z,5.50
2022-11-29T16:44:42.731Z,5.50
2022-11-29T16:47:25.918Z,5.40
2022-11-29T16:50:02.570Z,5.40
2022-11-29T16:52:34.638Z,5.40
2022-11-29T16:55:02.238Z,5.40
2022-11-29T16:57:31.229Z,5.40
2022-11-29T16:59:59.039Z,5.30
2022-11-29T17:02:30.075Z,5.30
2022-11-29T17:04:58.584Z,5.30
2022-11-29T17:07:29.648Z,5.30
2022-11-29T17:09:58.213Z,5.30
2022-11-29T17:12:25.852Z,5.30
2022-11-29T17:14:53.363Z,5.30
2022-11-29T17:17:20.954Z,5.30
2022-11-29T17:19:48.595Z,5.30
2022-11-29T17:22:16.320Z,5.30
2022-11-29T17:24:48.361Z,5.30
2022-11-29T17:27:16.487Z,5.20
2022-11-29T17:29:44.069Z,5.30
2022-11-29T17:32:11.643Z,5.20
2022-11-29T17:34:39.233Z,5.20
2022-11-29T17:37:06.807Z,5.20
2022-11-29T17:39:34.541Z,5.20
2022-11-29T17:42:02.142Z,5.20
2022-11-29T17:44:29.689Z,5.20
2022-11-29T17:46:57.212Z,5.20
2022-11-29T17:49:24.756Z,5.20
2022-11-29T17:51:53.640Z,5.10
2022-11-29T17:54:22.319Z,5.10
2022-11-29T17:56:50.539Z,5.10
2022-11-29T17:59:18.132Z,5.10
2022-11-29T18:01:48.579Z,5.00
2022-11-29T18:04:16.501Z,5.00
2022-11-29T18:06:49.539Z,5.00
2022-11-29T18:09:18.755Z,5.00
2022-11-29T18:11:49.757Z,4.90
2022-11-29T18:14:23.979Z,4.90
2022-11-29T18:16:52.077Z,4.90
2022-11-29T18:19:22.010Z,4.90
2022-11-29T18:21:50.336Z,4.90
2022-11-29T18:24:18.400Z,4.90
2022-11-29T18:26:46.763Z,4.90
2022-11-29T18:29:14.555Z,4.90
2022-11-29T18:31:45.993Z,4.80
2022-11-29T18:34:14.348Z,4.80
2022-11-29T18:36:47.323Z,4.80
2022-11-29T18:39:18.024Z,4.80
2022-11-29T18:41:48.158Z,4.80
2022-11-29T18:44:18.041Z,4.80
2022-11-29T18:46:46.193Z,4.80
2022-11-29T18:49:16.073Z,4.80
2022-11-29T18:51:45.407Z,4.80
2022-11-29T18:54:14.977Z,4.80
2022-11-29T18:56:43.806Z,4.80
2022-11-29T18:59:16.756Z,4.80
2022-11-29T19:01:46.557Z,4.80
2022-11-29T19:04:19.705Z,4.80
2022-11-29T19:06:49.020Z,4.80
2022-11-29T19:09:21.099Z,4.90
2022-11-29T19:11:49.911Z,4.80
2022-11-29T19:14:18.306Z,4.80
2022-11-29T19:16:48.013Z,4.80
2022-11-29T19:19:15.878Z,4.80
2022-11-29T19:24:15.125Z,4.80
2022-11-29T19:26:46.769Z,4.80
2022-11-29T19:29:15.503Z,4.80
2022-11-29T19:31:50.551Z,4.80
2022-11-29T19:34:18.590Z,4.80
2022-11-29T19:36:46.996Z,4.90
2022-11-29T19:39:17.330Z,4.90
2022-11-29T19:41:47.224Z,4.90
2022-11-29T19:44:15.316Z,4.80
2022-11-29T19:46:46.295Z,4.80
2022-11-29T19:49:14.536Z,4.90
2022-11-29T19:51:43.971Z,4.80
2022-11-29T19:54:13.867Z,4.90
2022-11-29T19:56:42.765Z,4.90
2022-11-29T19:59:11.844Z,4.90
2022-11-29T20:01:42.318Z,4.90
2022-11-29T20:04:14.369Z,4.90
2022-11-29T20:06:44.829Z,5.00
2022-11-29T20:09:15.094Z,5.00
2022-11-29T20:11:45.557Z,5.00
2022-11-29T20:14:15.236Z,5.00
2022-11-29T20:16:47.453Z,5.00
2022-11-29T20:19:19.309Z,5.00
2022-11-29T20:21:49.575Z,4.90
2022-11-29T20:24:22.060Z,4.90
2022-11-29T20:26:53.909Z,4.90
2022-11-29T20:29:25.080Z,4.90
2022-11-29T20:31:53.721Z,5.00
2022-11-29T20:34:22.101Z,5.00
2022-11-29T20:37:25.160Z,5.00
2022-11-29T20:40:10.102Z,5.00
2022-11-29T20:43:25.745Z,5.00
2022-11-29T20:45:54.019Z,5.00
2022-11-29T20:48:23.126Z,7.60
2022-11-29T20:50:58.548Z,5.00
2022-11-29T20:53:40.275Z,5.00
2022-11-29T20:56:09.157Z,5.00
2022-11-29T20:58:36.858Z,6.50
2022-11-29T21:01:05.435Z,5.00
2022-11-29T21:03:33.334Z,5.10
2022-11-29T21:06:05.637Z,5.00
2022-11-29T21:08:34.326Z,5.10
2022-11-29T21:11:04.347Z,5.00
2022-11-29T21:13:32.646Z,5.10
2022-11-29T21:16:01.049Z,5.00
2022-11-29T21:18:30.387Z,5.00
2022-11-29T21:20:57.854Z,5.00
2022-11-29T21:23:52.005Z,5.00
2022-11-29T21:26:41.768Z,5.10
2022-11-29T21:29:09.789Z,5.00
2022-11-29T21:31:37.728Z,5.10
2022-11-29T21:34:05.353Z,5.00
2022-11-29T21:36:32.953Z,5.10
2022-11-29T21:39:04.819Z,5.10
2022-11-29T21:41:33.154Z,5.10
2022-11-29T21:46:36.481Z,5.10
2022-11-29T21:49:04.924Z,5.20
2022-11-29T22:01:27.251Z,5.20
2022-11-29T22:03:55.067Z,5.20
2022-11-29T22:14:18.952Z,5.10
2022-11-29T22:21:48.565Z,5.60
2022-11-29T22:26:47.010Z,4.80
2022-11-29T22:29:15.929Z,5.60
2022-11-29T22:34:13.428Z,5.10
2022-11-29T22:36:41.550Z,5.20
2022-11-29T22:41:39.304Z,5.20
2022-11-29T22:44:07.253Z,5.20
2022-11-29T22:46:39.465Z,5.10
2022-11-29T22:54:06.513Z,5.20
2022-11-29T23:01:33.555Z,5.20
2022-11-29T23:04:04.111Z,5.20
2022-11-29T23:06:35.063Z,5.20
2022-11-29T23:09:19.956Z,5.20
2022-11-29T23:11:55.889Z,5.20
2022-11-29T23:14:24.024Z,5.10
2022-11-29T23:16:52.332Z,5.10
2022-11-29T23:19:20.381Z,5.10
2022-11-29T23:21:48.531Z,5.20
2022-11-29T23:24:16.540Z,5.20
2022-11-29T23:26:46.444Z,5.20
2022-11-29T23:29:16.788Z,5.20
2022-11-29T23:31:44.498Z,5.20
2022-11-29T23:34:12.698Z,5.20
2022-11-29T23:36:40.370Z,5.20
2022-11-29T23:39:08.033Z,5.20
2022-11-29T23:41:37.010Z,5.20
2022-11-29T23:44:05.326Z,5.20
2022-11-29T23:46:34.498Z,5.20
2022-11-29T23:49:02.078Z,5.20
2022-11-29T23:51:29.975Z,5.20
2022-11-29T23:53:57.607Z,5.10
2022-11-29T23:56:25.298Z,5.10
2022-11-29T23:58:52.859Z,5.10
